Time;durP1;ratioP1;P1;durP2;ratioP2;P2;SDS_P1;SDS_P2;PMS_P1;PMS_P2;Temp;Humidity;BMP_temperature;BMP_pressure;BME280_temperature;BME280_humidity;BME280_pressure;Samples;Min_cycle;Max_cycle;Signal;HPM_P1;HPM_P2
2023/02/10 00:01:47;;;;;;;;;86.67;72.33;;;;;-147.17;100.00;-15917.19;5030252;28;51034;-61
2023/02/10 00:04:14;;;;;;;;;87.00;70.00;;;;;-147.17;100.00;-15917.19;5014164;28;52950;-60
2023/02/10 00:06:40;;;;;;;;;88.00;73.00;;;;;-147.17;100.00;-15917.19;5026133;28;52041;-61
2023/02/10 00:09:06;;;;;;;;;90.67;76.33;;;;;-147.17;100.00;-15917.19;5015995;28;51145;-61
2023/02/10 00:14:17;;;;;;;;;86.67;72.00;;;;;-147.17;100.00;-15917.19;5027414;28;51132;-61
2023/02/10 00:16:43;;;;;;;;;88.33;74.33;;;;;-147.17;100.00;-15917.19;5020062;28;51768;-60
2023/02/10 00:19:09;;;;;;;;;88.00;72.33;;;;;-147.17;100.00;-15917.19;5025533;28;51299;-60
2023/02/10 00:21:35;;;;;;;;;90.00;75.33;;;;;-147.17;100.00;-15917.19;5031313;28;51763;-60
2023/02/10 00:24:00;;;;;;;;;84.67;67.00;;;;;-147.17;100.00;-15917.19;5026401;28;51220;-60
2023/02/10 00:26:26;;;;;;;;;91.67;72.67;;;;;-147.17;100.00;-15917.19;5024572;28;51916;-61
2023/02/10 00:28:52;;;;;;;;;90.00;70.33;;;;;-147.17;100.00;-15917.19;5026695;28;51070;-61
2023/02/10 00:31:18;;;;;;;;;88.00;72.33;;;;;-147.17;100.00;-15917.19;5028607;28;51465;-59
2023/02/10 00:33:44;;;;;;;;;90.33;77.33;;;;;-147.17;100.00;-15917.19;5010423;28;51384;-60
2023/02/10 00:36:11;;;;;;;;;86.50;70.75;;;;;-147.17;100.00;-15917.19;5027193;28;51015;-61
2023/02/10 00:38:38;;;;;;;;;89.25;70.75;;;;;-147.17;100.00;-15917.19;5025050;28;51101;-60
2023/02/10 00:41:07;;;;;;;;;90.00;76.67;;;;;-147.17;100.00;-15917.19;5020994;28;50956;-60
2023/02/10 00:43:33;;;;;;;;;88.33;71.67;;;;;-147.17;100.00;-15917.19;5027198;28;51308;-61
2023/02/10 00:45:58;;;;;;;;;89.00;76.00;;;;;-147.17;100.00;-15917.19;5018355;28;51136;-61
2023/02/10 00:48:24;;;;;;;;;87.00;71.00;;;;;-147.17;100.00;-15917.19;5014175;28;50969;-60
2023/02/10 00:50:49;;;;;;;;;84.50;68.25;;;;;-147.17;100.00;-15917.19;5024684;28;51232;-60
2023/02/10 00:53:15;;;;;;;;;89.67;72.67;;;;;-147.17;100.00;-15917.19;5015673;28;51168;-60
2023/02/10 00:55:40;;;;;;;;;85.00;69.00;;;;;-147.17;100.00;-15917.19;5018290;28;52255;-60
2023/02/10 00:58:05;;;;;;;;;84.00;67.25;;;;;-147.17;100.00;-15917.19;5004877;28;51244;-60
2023/02/10 01:00:31;;;;;;;;;84.67;63.00;;;;;-147.17;100.00;-15917.19;5028624;28;51275;-60
2023/02/10 01:02:56;;;;;;;;;82.50;66.75;;;;;-147.17;100.00;-15917.19;5032755;28;51067;-61
2023/02/10 01:05:21;;;;;;;;;88.00;70.67;;;;;-147.17;100.00;-15917.19;5019421;28;51162;-60
2023/02/10 01:07:47;;;;;;;;;87.00;69.75;;;;;-147.17;100.00;-15917.19;5015091;28;51065;-60
2023/02/10 01:10:12;;;;;;;;;92.00;76.00;;;;;-147.17;100.00;-15917.19;5031531;28;51119;-60
2023/02/10 01:12:38;;;;;;;;;89.33;75.00;;;;;-147.17;100.00;-15917.19;5020498;28;51557;-59
2023/02/10 01:15:03;;;;;;;;;95.67;87.67;;;;;-147.17;100.00;-15917.19;5029329;28;51849;-60
2023/02/10 01:17:29;;;;;;;;;92.33;78.67;;;;;-147.17;100.00;-15917.19;5013291;28;50983;-60
2023/02/10 01:19:55;;;;;;;;;93.67;81.67;;;;;-147.17;100.00;-15917.19;5018230;28;51321;-59
2023/02/10 01:22:21;;;;;;;;;86.67;72.33;;;;;-147.17;100.00;-15917.19;5015803;28;50956;-61
2023/02/10 01:24:46;;;;;;;;;90.00;76.00;;;;;-147.17;100.00;-15917.19;5015054;28;51063;-60
2023/02/10 01:27:12;;;;;;;;;93.67;80.00;;;;;-147.17;100.00;-15917.19;5010997;28;51087;-59
2023/02/10 01:29:37;;;;;;;;;94.33;85.00;;;;;-147.17;100.00;-15917.19;5026487;28;50981;-60
2023/02/10 01:32:02;;;;;;;;;97.33;86.33;;;;;-147.17;100.00;-15917.19;5031010;28;51317;-60
2023/02/10 01:34:28;;;;;;;;;93.00;80.67;;;;;-147.17;100.00;-15917.19;5028239;28;50910;-60
2023/02/10 01:36:53;;;;;;;;;90.67;78.67;;;;;-147.17;100.00;-15917.19;5017075;28;51174;-60
2023/02/10 01:39:19;;;;;;;;;95.33;84.00;;;;;-147.17;100.00;-15917.19;5014005;28;51122;-60
2023/02/10 01:41:44;;;;;;;;;94.00;83.00;;;;;-147.17;100.00;-15917.19;5023104;28;51061;-60
2023/02/10 01:44:19;;;;;;;;;95.33;80.33;;;;;-147.17;100.00;-15917.19;5017170;28;51244;-61
2023/02/10 01:46:45;;;;;;;;;98.33;83.67;;;;;-147.17;100.00;-15917.19;5027391;28;51035;-60
2023/02/10 01:49:14;;;;;;;;;95.33;83.00;;;;;-147.17;100.00;-15917.19;5032773;28;51382;-60
2023/02/10 01:51:50;;;;;;;;;94.67;80.00;;;;;-147.17;100.00;-15917.19;5033344;28;50864;-60
2023/02/10 01:54:26;;;;;;;;;81.67;63.67;;;;;-147.17;100.00;-15917.19;5025471;28;52970;-60
2023/02/10 01:56:52;;;;;;;;;97.00;84.67;;;;;-147.17;100.00;-15917.19;5013194;28;51113;-60
2023/02/10 01:59:20;;;;;;;;;93.33;84.67;;;;;-147.17;100.00;-15917.19;5018311;28;51129;-60
2023/02/10 02:01:46;;;;;;;;;97.00;86.33;;;;;-147.17;100.00;-15917.19;5025582;28;53160;-60
2023/02/10 02:04:12;;;;;;;;;103.33;99.00;;;;;-147.17;100.00;-15917.19;5014108;28;51924;-60
2023/02/10 02:06:39;;;;;;;;;107.33;95.67;;;;;-147.17;100.00;-15917.19;5018463;28;51109;-60
2023/02/10 02:09:05;;;;;;;;;106.67;90.67;;;;;-147.17;100.00;-15917.19;5024949;28;51200;-60
2023/02/10 02:11:46;;;;;;;;;93.67;80.33;;;;;-147.17;100.00;-15917.19;5025232;28;51592;-60
2023/02/10 02:14:29;;;;;;;;;104.00;94.00;;;;;-147.17;100.00;-15917.19;5030126;28;51990;-60
2023/02/10 02:17:54;;;;;;;;;102.00;92.67;;;;;-147.17;100.00;-15917.19;5019564;28;51158;-61
2023/02/10 02:20:57;;;;;;;;;97.00;89.67;;;;;-147.17;100.00;-15917.19;4929786;28;51313;-60
2023/02/10 02:23:34;;;;;;;;;97.67;86.33;;;;;-147.17;100.00;-15917.19;4953123;28;50993;-61
2023/02/10 02:26:19;;;;;;;;;100.33;90.67;;;;;-147.17;100.00;-15917.19;5027949;28;51975;-59
2023/02/10 02:29:12;;;;;;;;;96.00;85.00;;;;;-147.17;100.00;-15917.19;5033063;28;50997;-60
2023/02/10 02:31:56;;;;;;;;;91.33;74.33;;;;;-147.17;100.00;-15917.19;5020567;28;50931;-59
2023/02/10 02:34:32;;;;;;;;;98.33;84.33;;;;;-147.17;100.00;-15917.19;5013020;28;51074;-59
2023/02/10 02:37:14;;;;;;;;;102.67;91.00;;;;;-147.17;100.00;-15917.19;5013633;28;51306;-61
2023/02/10 02:39:41;;;;;;;;;99.33;90.00;;;;;-147.17;100.00;-15917.19;5024691;28;51039;-60
2023/02/10 02:42:25;;;;;;;;;103.33;94.33;;;;;-147.17;100.00;-15917.19;5013260;28;51063;-61
2023/02/10 02:44:55;;;;;;;;;97.33;87.33;;;;;-147.17;100.00;-15917.19;5014116;28;51016;-60
2023/02/10 02:47:51;;;;;;;;;99.00;95.00;;;;;-147.17;100.00;-15917.19;5017718;28;51203;-60
2023/02/10 02:50:37;;;;;;;;;99.33;91.33;;;;;-147.17;100.00;-15917.19;5025308;28;51118;-60
2023/02/10 02:53:13;;;;;;;;;98.00;90.67;;;;;-147.17;100.00;-15917.19;5018611;28;51272;-59
2023/02/10 02:56:03;;;;;;;;;99.67;90.33;;;;;-147.17;100.00;-15917.19;5013305;28;50893;-59
2023/02/10 02:58:53;;;;;;;;;97.67;88.67;;;;;-147.17;100.00;-15917.19;5012843;28;51132;-60
2023/02/10 03:01:28;;;;;;;;;99.00;93.00;;;;;-147.17;100.00;-15917.19;5018093;28;51084;-60
2023/02/10 03:03:56;;;;;;;;;98.67;88.00;;;;;-147.17;100.00;-15917.19;5013728;28;51085;-59
2023/02/10 03:06:22;;;;;;;;;95.33;86.00;;;;;-147.17;100.00;-15917.19;5019711;28;50979;-59
2023/02/10 03:08:47;;;;;;;;;96.67;87.33;;;;;-147.17;100.00;-15917.19;5018532;28;51766;-60
2023/02/10 03:11:13;;;;;;;;;97.33;88.00;;;;;-147.17;100.00;-15917.19;5014538;28;51238;-60
2023/02/10 03:13:38;;;;;;;;;99.00;91.33;;;;;-147.17;100.00;-15917.19;5001963;28;50963;-60
2023/02/10 03:16:04;;;;;;;;;98.33;93.67;;;;;-147.17;100.00;-15917.19;5014790;28;51131;-60
2023/02/10 03:18:29;;;;;;;;;95.67;81.00;;;;;-147.17;100.00;-15917.19;5003814;28;52582;-60
2023/02/10 03:20:55;;;;;;;;;94.00;83.00;;;;;-147.17;100.00;-15917.19;5013851;28;51102;-60
2023/02/10 03:23:20;;;;;;;;;98.33;89.67;;;;;-147.17;100.00;-15917.19;5027333;28;51622;-61
2023/02/10 03:25:46;;;;;;;;;99.33;91.00;;;;;-147.17;100.00;-15917.19;5013964;28;51116;-59
2023/02/10 03:28:11;;;;;;;;;96.00;88.67;;;;;-147.17;100.00;-15917.19;5023368;28;51999;-60
2023/02/10 03:30:38;;;;;;;;;89.33;74.00;;;;;-147.17;100.00;-15917.19;5016507;28;51204;-59
2023/02/10 03:33:04;;;;;;;;;95.00;81.33;;;;;-147.17;100.00;-15917.19;5027822;28;51184;-60
2023/02/10 03:35:29;;;;;;;;;92.67;77.33;;;;;-147.17;100.00;-15917.19;5025009;28;50889;-59
2023/02/10 03:37:55;;;;;;;;;89.67;75.67;;;;;-147.17;100.00;-15917.19;5014771;28;51051;-60
2023/02/10 03:40:20;;;;;;;;;94.33;82.00;;;;;-147.17;100.00;-15917.19;5016482;28;51165;-60
2023/02/10 03:42:45;;;;;;;;;92.00;77.33;;;;;-147.17;100.00;-15917.19;5028339;28;50923;-61
2023/02/10 03:45:11;;;;;;;;;87.00;70.33;;;;;-147.17;100.00;-15917.19;5022141;28;50919;-60
2023/02/10 03:47:36;;;;;;;;;88.00;73.00;;;;;-147.17;100.00;-15917.19;5020941;28;52061;-60
2023/02/10 03:50:02;;;;;;;;;88.33;73.67;;;;;-147.17;100.00;-15917.19;5014929;28;51183;-60
2023/02/10 03:52:27;;;;;;;;;90.67;78.33;;;;;-147.17;100.00;-15917.19;5015643;28;51128;-60
2023/02/10 03:54:52;;;;;;;;;84.33;67.67;;;;;-147.17;100.00;-15917.19;5020178;28;51333;-60
2023/02/10 03:57:18;;;;;;;;;87.67;71.67;;;;;-147.17;100.00;-15917.19;5025341;28;51118;-60
2023/02/10 03:59:44;;;;;;;;;77.67;63.67;;;;;-147.17;100.00;-15917.19;5019795;28;51208;-60
2023/02/10 04:02:09;;;;;;;;;83.67;68.67;;;;;-147.17;100.00;-15917.19;5023113;28;51078;-60
2023/02/10 04:04:35;;;;;;;;;85.25;67.25;;;;;-147.17;100.00;-15917.19;5026028;28;51221;-60
2023/02/10 04:07:02;;;;;;;;;62.33;47.67;;;;;-147.17;100.00;-15917.19;5015237;28;51875;-59
2023/02/10 04:09:27;;;;;;;;;78.25;62.50;;;;;-147.17;100.00;-15917.19;5016939;28;51181;-59
2023/02/10 04:11:53;;;;;;;;;85.75;70.00;;;;;-147.17;100.00;-15917.19;5025272;28;51145;-60
2023/02/10 04:14:19;;;;;;;;;83.33;66.33;;;;;-147.17;100.00;-15917.19;5011633;28;50900;-60
2023/02/10 04:16:44;;;;;;;;;80.67;63.33;;;;;-147.17;100.00;-15917.19;5012309;28;51922;-59
2023/02/10 04:19:10;;;;;;;;;83.25;66.00;;;;;-147.17;100.00;-15917.19;5027803;28;51168;-60
2023/02/10 04:21:35;;;;;;;;;83.50;66.25;;;;;-147.17;100.00;-15917.19;5023881;28;51069;-60
2023/02/10 04:24:00;;;;;;;;;78.33;62.00;;;;;-147.17;100.00;-15917.19;5012478;28;51384;-60
2023/02/10 04:26:26;;;;;;;;;87.67;68.33;;;;;-147.17;100.00;-15917.19;5002395;28;52132;-60
2023/02/10 04:28:51;;;;;;;;;81.25;63.75;;;;;-147.17;100.00;-15917.19;5033202;28;51017;-61
2023/02/10 04:31:17;;;;;;;;;81.50;65.00;;;;;-147.17;100.00;-15917.19;5016695;28;50966;-60
2023/02/10 04:33:43;;;;;;;;;79.50;63.00;;;;;-147.17;100.00;-15917.19;5014474;28;51384;-61
2023/02/10 04:36:08;;;;;;;;;82.00;65.75;;;;;-147.17;100.00;-15917.19;5021393;28;51149;-59
2023/02/10 04:38:34;;;;;;;;;83.25;64.25;;;;;-147.17;100.00;-15917.19;5010769;28;51119;-60
2023/02/10 04:41:02;;;;;;;;;83.75;64.00;;;;;-147.17;100.00;-15917.19;5032710;28;50995;-61
2023/02/10 04:43:28;;;;;;;;;84.00;64.33;;;;;-147.17;100.00;-15917.19;5029764;28;50994;-61
2023/02/10 04:45:53;;;;;;;;;84.25;66.00;;;;;-147.17;100.00;-15917.19;5015676;28;52203;-59
2023/02/10 04:48:20;;;;;;;;;83.50;66.50;;;;;-147.17;100.00;-15917.19;5014161;28;51041;-60
2023/02/10 04:50:46;;;;;;;;;87.00;68.00;;;;;-147.17;100.00;-15917.19;5013861;28;51161;-60
2023/02/10 04:53:12;;;;;;;;;91.00;78.67;;;;;-147.17;100.00;-15917.19;5031898;28;51025;-60
2023/02/10 04:55:37;;;;;;;;;89.00;72.67;;;;;-147.17;100.00;-15917.19;5014713;28;52227;-59
2023/02/10 04:58:03;;;;;;;;;90.33;76.67;;;;;-147.17;100.00;-15917.19;5015067;28;50967;-61
2023/02/10 05:00:28;;;;;;;;;82.50;65.00;;;;;-147.17;100.00;-15917.19;5019301;28;50919;-59
2023/02/10 05:02:54;;;;;;;;;77.75;61.75;;;;;-147.17;100.00;-15917.19;5030877;28;51217;-59
2023/02/10 05:05:20;;;;;;;;;78.25;63.25;;;;;-147.17;100.00;-15917.19;5028512;28;51321;-59
2023/02/10 05:07:45;;;;;;;;;78.00;61.50;;;;;-147.17;100.00;-15917.19;5013759;28;51073;-59
2023/02/10 05:10:11;;;;;;;;;77.25;59.25;;;;;-147.17;100.00;-15917.19;5025876;28;51081;-59
2023/02/10 05:12:36;;;;;;;;;69.75;57.75;;;;;-147.17;100.00;-15917.19;5026776;28;53129;-59
2023/02/10 05:15:02;;;;;;;;;73.75;59.25;;;;;-147.17;100.00;-15917.19;5031020;28;51862;-61
2023/02/10 05:17:28;;;;;;;;;71.50;57.75;;;;;-147.17;100.00;-15917.19;5008893;28;51090;-60
2023/02/10 05:19:53;;;;;;;;;72.25;58.25;;;;;-147.17;100.00;-15917.19;5014960;28;51022;-60
2023/02/10 05:22:22;;;;;;;;;77.00;58.25;;;;;-147.17;100.00;-15917.19;5028289;28;51012;-58
2023/02/10 05:24:47;;;;;;;;;75.25;58.75;;;;;-147.17;100.00;-15917.19;5020832;28;52895;-60
2023/02/10 05:27:12;;;;;;;;;75.75;59.00;;;;;-147.17;100.00;-15917.19;5007711;28;51144;-59
2023/02/10 05:29:38;;;;;;;;;71.50;56.75;;;;;-147.17;100.00;-15917.19;5014147;28;50906;-59
2023/02/10 05:32:03;;;;;;;;;69.75;57.25;;;;;-147.17;100.00;-15917.19;5014667;28;51353;-60
2023/02/10 05:34:29;;;;;;;;;69.00;56.00;;;;;-147.17;100.00;-15917.19;5014150;28;51868;-59
2023/02/10 05:36:54;;;;;;;;;68.00;56.00;;;;;-147.17;100.00;-15917.19;5014439;28;51086;-59
2023/02/10 05:39:22;;;;;;;;;66.50;55.00;;;;;-147.17;100.00;-15917.19;5034336;28;51005;-60
2023/02/10 05:41:51;;;;;;;;;70.75;55.75;;;;;-147.17;100.00;-15917.19;5016114;28;51287;-59
2023/02/10 05:44:17;;;;;;;;;60.25;48.75;;;;;-147.17;100.00;-15917.19;5014475;28;51707;-60
2023/02/10 05:46:42;;;;;;;;;67.25;54.25;;;;;-147.17;100.00;-15917.19;5014193;28;50916;-59
2023/02/10 05:49:08;;;;;;;;;70.75;55.50;;;;;-147.17;100.00;-15917.19;5014214;28;50889;-59
2023/02/10 05:51:33;;;;;;;;;68.75;54.50;;;;;-147.17;100.00;-15917.19;5014514;28;51222;-60
2023/02/10 05:53:58;;;;;;;;;69.25;54.25;;;;;-147.17;100.00;-15917.19;5013909;28;51170;-60
2023/02/10 05:56:24;;;;;;;;;66.25;53.50;;;;;-147.17;100.00;-15917.19;5013580;28;51030;-60
2023/02/10 05:58:49;;;;;;;;;61.75;49.75;;;;;-147.17;100.00;-15917.19;5016103;28;51025;-60
2023/02/10 06:01:15;;;;;;;;;58.75;49.00;;;;;-147.17;100.00;-15917.19;5009310;28;51311;-60
2023/02/10 06:03:40;;;;;;;;;59.50;48.50;;;;;-147.17;100.00;-15917.19;5022917;28;51891;-60
2023/02/10 06:06:06;;;;;;;;;61.25;50.25;;;;;-147.17;100.00;-15917.19;5018325;28;51105;-59
2023/02/10 06:08:31;;;;;;;;;64.75;53.25;;;;;-147.17;100.00;-15917.19;5018754;28;51276;-59
2023/02/10 06:10:57;;;;;;;;;60.00;49.25;;;;;-147.17;100.00;-15917.19;5029134;28;50970;-60
2023/02/10 06:13:22;;;;;;;;;62.75;49.00;;;;;-147.17;100.00;-15917.19;5023695;28;51792;-60
2023/02/10 06:15:48;;;;;;;;;63.50;52.50;;;;;-147.17;100.00;-15917.19;5018656;28;50961;-59
2023/02/10 06:18:13;;;;;;;;;59.25;49.00;;;;;-147.17;100.00;-15917.19;5011472;28;51070;-59
2023/02/10 06:20:39;;;;;;;;;58.50;48.25;;;;;-147.17;100.00;-15917.19;5026071;28;51012;-60
2023/02/10 06:23:04;;;;;;;;;60.50;49.75;;;;;-147.17;100.00;-15917.19;5014814;28;51788;-60
2023/02/10 06:25:35;;;;;;;;;56.00;47.25;;;;;-147.17;100.00;-15917.19;5012936;28;51079;-60
2023/02/10 06:28:01;;;;;;;;;61.75;49.00;;;;;-147.17;100.00;-15917.19;5012826;28;51329;-59
2023/02/10 06:30:27;;;;;;;;;56.00;45.75;;;;;-147.17;100.00;-15917.19;5018297;28;51272;-60
2023/02/10 06:32:52;;;;;;;;;58.25;48.50;;;;;-147.17;100.00;-15917.19;5030845;28;51118;-60
2023/02/10 06:35:18;;;;;;;;;59.25;48.75;;;;;-147.17;100.00;-15917.19;5031197;28;51120;-60
2023/02/10 06:37:44;;;;;;;;;56.25;47.00;;;;;-147.17;100.00;-15917.19;5030166;28;51323;-59
2023/02/10 06:40:10;;;;;;;;;56.00;47.75;;;;;-147.17;100.00;-15917.19;5030791;28;51202;-59
2023/02/10 06:42:35;;;;;;;;;58.50;47.50;;;;;-147.17;100.00;-15917.19;5012124;28;51772;-60
2023/02/10 06:45:01;;;;;;;;;57.75;48.50;;;;;-147.17;100.00;-15917.19;5012277;28;50991;-60
2023/02/10 06:47:26;;;;;;;;;56.50;47.00;;;;;-147.17;100.00;-15917.19;5023836;28;51330;-60
2023/02/10 06:49:52;;;;;;;;;60.00;46.75;;;;;-147.17;100.00;-15917.19;5011168;28;51469;-60
2023/02/10 06:52:17;;;;;;;;;60.25;45.00;;;;;-147.17;100.00;-15917.19;5010797;28;51054;-61
2023/02/10 06:54:44;;;;;;;;;58.00;46.25;;;;;-147.17;100.00;-15917.19;5011107;28;51292;-60
2023/02/10 06:57:09;;;;;;;;;51.00;44.25;;;;;-147.17;100.00;-15917.19;5010874;28;51166;-61
2023/02/10 06:59:35;;;;;;;;;54.75;45.75;;;;;-147.17;100.00;-15917.19;5019491;28;51419;-60
2023/02/10 07:02:01;;;;;;;;;54.75;46.75;;;;;-147.17;100.00;-15917.19;5016392;28;51324;-59
2023/02/10 07:04:31;;;;;;;;;50.25;41.00;;;;;-147.17;100.00;-15917.19;5022918;28;51282;-59
2023/02/10 07:06:57;;;;;;;;;55.25;44.25;;;;;-147.17;100.00;-15917.19;5024897;28;51213;-60
2023/02/10 07:09:22;;;;;;;;;53.50;43.75;;;;;-147.17;100.00;-15917.19;5018134;28;51057;-60
2023/02/10 07:11:48;;;;;;;;;47.50;41.00;;;;;-147.17;100.00;-15917.19;5018437;28;51664;-60
2023/02/10 07:14:13;;;;;;;;;56.00;45.50;;;;;-147.17;100.00;-15917.19;5010644;28;51418;-60
2023/02/10 07:16:39;;;;;;;;;55.75;43.75;;;;;-147.17;100.00;-15917.19;5011324;28;51070;-63
2023/02/10 07:19:05;;;;;;;;;44.00;40.25;;;;;-147.17;100.00;-15917.19;5013157;28;51055;-61
2023/02/10 07:21:30;;;;;;;;;50.75;43.75;;;;;-147.17;100.00;-15917.19;5011833;28;51811;-62
2023/02/10 07:23:56;;;;;;;;;54.00;43.00;;;;;-147.17;100.00;-15917.19;5030440;28;51142;-60
2023/02/10 07:26:21;;;;;;;;;47.00;41.25;;;;;-147.17;100.00;-15917.19;5031912;28;51013;-61
2023/02/10 07:28:47;;;;;;;;;52.25;44.50;;;;;-147.17;100.00;-15917.19;5027994;28;51065;-60
2023/02/10 07:31:12;;;;;;;;;42.75;38.50;;;;;-147.17;100.00;-15917.19;5011901;28;51818;-61
2023/02/10 07:33:38;;;;;;;;;47.25;41.25;;;;;-147.17;100.00;-15917.19;5012939;28;51075;-60
2023/02/10 07:36:05;;;;;;;;;53.25;44.00;;;;;-147.17;100.00;-15917.19;5025043;28;51178;-60
2023/02/10 07:38:31;;;;;;;;;51.25;44.00;;;;;-147.17;100.00;-15917.19;5012050;28;50924;-60
2023/02/10 07:40:57;;;;;;;;;53.75;43.75;;;;;-147.17;100.00;-15917.19;5011562;28;52235;-60
2023/02/10 07:43:23;;;;;;;;;51.25;42.50;;;;;-147.17;100.00;-15917.19;5012089;28;50980;-60
2023/02/10 07:45:52;;;;;;;;;54.75;45.50;;;;;-147.17;100.00;-15917.19;5021584;28;51102;-59
2023/02/10 07:48:18;;;;;;;;;54.00;44.75;;;;;-147.17;100.00;-15917.19;5015562;28;51397;-60
2023/02/10 07:50:43;;;;;;;;;56.75;45.00;;;;;-147.17;100.00;-15917.19;5011948;28;51041;-60
2023/02/10 07:53:10;;;;;;;;;40.50;36.50;;;;;-147.17;100.00;-15917.19;4994133;28;51195;-61
2023/02/10 07:55:39;;;;;;;;;54.25;45.25;;;;;-147.17;100.00;-15917.19;5012031;28;50824;-61
2023/02/10 07:58:05;;;;;;;;;52.50;44.00;;;;;-147.17;100.00;-15917.19;5003102;28;51398;-60
2023/02/10 08:00:30;;;;;;;;;49.50;41.25;;;;;-147.17;100.00;-15917.19;5030275;28;51128;-60
2023/02/10 08:02:56;;;;;;;;;54.75;44.50;;;;;-147.17;100.00;-15917.19;5033738;28;51147;-61
2023/02/10 08:05:22;;;;;;;;;47.00;41.00;;;;;-147.17;100.00;-15917.19;5015285;28;51134;-60
2023/02/10 08:07:48;;;;;;;;;55.50;45.25;;;;;-147.17;100.00;-15917.19;5018338;28;51149;-60
2023/02/10 08:10:13;;;;;;;;;46.25;41.00;;;;;-147.17;100.00;-15917.19;5024737;28;51169;-60
2023/02/10 08:12:39;;;;;;;;;50.50;41.00;;;;;-147.17;100.00;-15917.19;5005490;28;51109;-60
2023/02/10 08:15:06;;;;;;;;;51.25;44.25;;;;;-147.17;100.00;-15917.19;5005021;28;51142;-61
2023/02/10 08:17:32;;;;;;;;;48.25;39.75;;;;;-147.17;100.00;-15917.19;5015615;28;50960;-59
2023/02/10 08:19:57;;;;;;;;;47.75;42.00;;;;;-147.17;100.00;-15917.19;5011116;28;53233;-60
2023/02/10 08:22:23;;;;;;;;;47.00;39.50;;;;;-147.17;100.00;-15917.19;5011846;28;51167;-59
2023/02/10 08:24:51;;;;;;;;;50.75;40.75;;;;;-147.17;100.00;-15917.19;5022327;28;51245;-60
2023/02/10 08:27:17;;;;;;;;;55.75;43.75;;;;;-147.17;100.00;-15917.19;5023003;28;51297;-60
2023/02/10 08:29:42;;;;;;;;;53.50;44.00;;;;;-147.17;100.00;-15917.19;5017835;28;52080;-60
2023/02/10 08:32:08;;;;;;;;;52.50;43.75;;;;;-147.17;100.00;-15917.19;5014688;28;51388;-61
2023/02/10 08:34:34;;;;;;;;;53.25;43.50;;;;;-147.17;100.00;-15917.19;5010460;28;51109;-62
2023/02/10 08:36:59;;;;;;;;;51.00;44.00;;;;;-147.17;100.00;-15917.19;5023250;28;51046;-60
2023/02/10 08:39:28;;;;;;;;;57.00;45.75;;;;;-147.17;100.00;-15917.19;5025345;28;50921;-61
2023/02/10 08:41:53;;;;;;;;;45.75;40.75;;;;;-147.17;100.00;-15917.19;5015075;28;50888;-60
2023/02/10 08:44:19;;;;;;;;;51.25;42.50;;;;;-147.17;100.00;-15917.19;5024841;28;51417;-61
2023/02/10 08:46:44;;;;;;;;;51.50;42.75;;;;;-147.17;100.00;-15917.19;5035166;28;51084;-60
2023/02/10 08:49:10;;;;;;;;;55.00;45.00;;;;;-147.17;100.00;-15917.19;5034473;28;52690;-61
2023/02/10 08:51:38;;;;;;;;;56.25;45.75;;;;;-147.17;100.00;-15917.19;5034836;28;51141;-60
2023/02/10 08:54:04;;;;;;;;;59.00;49.00;;;;;-147.17;100.00;-15917.19;5031440;28;51122;-60
2023/02/10 08:56:29;;;;;;;;;58.75;45.25;;;;;-147.17;100.00;-15917.19;5022273;28;51164;-60
2023/02/10 08:58:55;;;;;;;;;50.75;43.50;;;;;-147.17;100.00;-15917.19;5028957;28;51856;-63
2023/02/10 09:01:25;;;;;;;;;57.75;46.50;;;;;-147.17;100.00;-15917.19;5019925;28;51011;-60
2023/02/10 09:03:51;;;;;;;;;55.25;44.25;;;;;-147.17;100.00;-15917.19;5019838;28;51106;-61
2023/02/10 09:06:19;;;;;;;;;55.75;46.25;;;;;-147.17;100.00;-15917.19;5000072;28;51414;-60
2023/02/10 09:08:47;;;;;;;;;49.00;42.25;;;;;-147.17;100.00;-15917.19;5014651;28;50884;-60
2023/02/10 09:11:15;;;;;;;;;53.50;44.00;;;;;-147.17;100.00;-15917.19;5019524;28;50888;-61
2023/02/10 09:13:41;;;;;;;;;56.00;45.00;;;;;-147.17;100.00;-15917.19;5017444;28;51148;-61
2023/02/10 09:16:06;;;;;;;;;49.75;41.00;;;;;-147.17;100.00;-15917.19;5014745;28;50984;-60
2023/02/10 09:18:32;;;;;;;;;56.00;46.00;;;;;-147.17;100.00;-15917.19;5014149;28;51812;-61
2023/02/10 09:20:58;;;;;;;;;55.25;46.00;;;;;-147.17;100.00;-15917.19;5014296;28;51019;-60
2023/02/10 09:23:24;;;;;;;;;55.50;44.75;;;;;-147.17;100.00;-15917.19;5012814;28;51046;-60
2023/02/10 09:25:54;;;;;;;;;61.50;48.25;;;;;-147.17;100.00;-15917.19;5014300;28;51264;-60
2023/02/10 09:28:19;;;;;;;;;54.75;45.25;;;;;-147.17;100.00;-15917.19;5014122;28;52015;-61
2023/02/10 09:30:45;;;;;;;;;51.25;44.25;;;;;-147.17;100.00;-15917.19;5014333;28;51128;-61
2023/02/10 09:33:10;;;;;;;;;57.00;45.75;;;;;-147.17;100.00;-15917.19;5014531;28;50979;-61
2023/02/10 09:35:36;;;;;;;;;45.75;37.75;;;;;-147.17;100.00;-15917.19;5014545;28;51102;-61
2023/02/10 09:38:01;;;;;;;;;40.25;37.25;;;;;-147.17;100.00;-15917.19;5013889;28;51110;-59
2023/02/10 09:40:32;;;;;;;;;57.25;47.75;;;;;-147.17;100.00;-15917.19;5014454;28;50998;-61
2023/02/10 09:43:26;;;;;;;;;54.00;45.50;;;;;-147.17;100.00;-15917.19;5014124;28;51175;-61
2023/02/10 09:46:01;;;;;;;;;44.25;38.75;;;;;-147.17;100.00;-15917.19;5021929;28;50876;-60
2023/02/10 09:48:42;;;;;;;;;52.00;43.00;;;;;-147.17;100.00;-15917.19;5015819;28;54019;-61
2023/02/10 09:51:35;;;;;;;;;45.50;40.25;;;;;-147.17;100.00;-15917.19;5033636;28;51141;-60
2023/02/10 09:54:01;;;;;;;;;54.50;44.25;;;;;-147.17;100.00;-15917.19;5019573;28;50976;-60
2023/02/10 09:56:26;;;;;;;;;56.50;46.00;;;;;-147.17;100.00;-15917.19;5013715;28;51299;-61
2023/02/10 09:58:57;;;;;;;;;52.25;44.50;;;;;-147.17;100.00;-15917.19;5014741;28;51879;-61
2023/02/10 10:01:47;;;;;;;;;47.25;41.50;;;;;-147.17;100.00;-15917.19;5014117;28;51102;-61
2023/02/10 10:04:15;;;;;;;;;42.25;38.00;;;;;-147.17;100.00;-15917.19;5023745;28;51255;-61
2023/02/10 10:06:49;;;;;;;;;57.50;46.00;;;;;-147.17;100.00;-15917.19;5033542;28;51290;-61
2023/02/10 10:09:17;;;;;;;;;41.00;38.50;;;;;-147.17;100.00;-15917.19;5033124;28;51108;-59
2023/02/10 10:11:48;;;;;;;;;48.75;41.75;;;;;-147.17;100.00;-15917.19;5028759;28;51001;-61
2023/02/10 10:14:24;;;;;;;;;51.50;41.25;;;;;-147.17;100.00;-15917.19;5013598;28;50991;-61
2023/02/10 10:16:55;;;;;;;;;45.50;39.75;;;;;-147.17;100.00;-15917.19;5013655;28;50945;-61
2023/02/10 10:19:52;;;;;;;;;44.75;39.25;;;;;-147.17;100.00;-15917.19;5013482;28;51913;-60
2023/02/10 10:22:33;;;;;;;;;48.25;41.25;;;;;-147.17;100.00;-15917.19;5012131;28;50891;-60
2023/02/10 10:25:27;;;;;;;;;40.50;36.25;;;;;-147.17;100.00;-15917.19;5013180;28;51012;-60
2023/02/10 10:28:02;;;;;;;;;45.50;38.00;;;;;-147.17;100.00;-15917.19;4989580;28;50922;-61
2023/02/10 10:30:43;;;;;;;;;26.50;25.50;;;;;-147.17;100.00;-15917.19;5013338;28;51841;-61
2023/02/10 10:33:46;;;;;;;;;48.00;40.75;;;;;-147.17;100.00;-15917.19;4995315;28;51066;-60
2023/02/10 10:36:21;;;;;;;;;48.75;40.75;;;;;-147.17;100.00;-15917.19;5013425;28;51089;-60
2023/02/10 10:38:54;;;;;;;;;44.25;38.75;;;;;-147.17;100.00;-15917.19;5013125;28;51029;-60
2023/02/10 10:41:25;;;;;;;;;52.25;42.50;;;;;-147.17;100.00;-15917.19;5012709;28;51823;-60
2023/02/10 10:43:53;;;;;;;;;37.25;33.75;;;;;-147.17;100.00;-15917.19;4995294;28;51261;-60
2023/02/10 10:46:27;;;;;;;;;41.00;38.00;;;;;-147.17;100.00;-15917.19;5013171;28;51132;-60
2023/02/10 10:48:54;;;;;;;;;35.75;35.00;;;;;-147.17;100.00;-15917.19;5008898;28;51135;-59
2023/02/10 10:51:19;;;;;;;;;47.00;39.75;;;;;-147.17;100.00;-15917.19;5016399;28;51869;-61
2023/02/10 10:53:56;;;;;;;;;45.00;38.75;;;;;-147.17;100.00;-15917.19;5032783;28;51047;-61
2023/02/10 10:56:33;;;;;;;;;42.25;37.00;;;;;-147.17;100.00;-15917.19;5003003;28;51155;-61